Time;durP1;ratioP1;P1;durP2;ratioP2;P2;SDS_P1;SDS_P2;PMS_P1;PMS_P2;Temp;Humidity;BMP_temperature;BMP_pressure;BME280_temperature;BME280_humidity;BME280_pressure;Samples;Min_cycle;Max_cycle;Signal;HPM_P1;HPM_P2
2022/06/05 00:03:37;;;;;;;5.78;3.17;;;18.30;78.80;;;;;;10535738;28;20508;-61
2022/06/05 00:08:49;;;;;;;5.75;2.45;;;18.30;78.90;;;;;;10535460;28;20052;-60
2022/06/05 00:13:52;;;;;;;6.30;3.42;;;18.30;78.90;;;;;;10535329;28;20051;-60
2022/06/05 00:18:54;;;;;;;6.05;2.85;;;18.20;78.90;;;;;;10535430;28;20031;-60
2022/06/05 00:23:54;;;;;;;4.80;3.10;;;18.20;78.90;;;;;;10535053;28;20047;-60
2022/06/05 00:29:32;;;;;;;4.18;2.70;;;18.20;79.00;;;;;;10534962;28;20044;-60
2022/06/05 00:34:33;;;;;;;5.22;2.83;;;18.10;79.00;;;;;;10535342;28;20064;-60
2022/06/05 00:39:50;;;;;;;5.43;3.38;;;18.10;79.00;;;;;;10534828;28;20032;-60
2022/06/05 00:44:54;;;;;;;4.82;3.00;;;18.00;78.90;;;;;;10534593;28;20044;-60
2022/06/05 00:50:09;;;;;;;5.30;3.05;;;18.00;78.90;;;;;;10534841;28;20055;-60
2022/06/05 00:55:11;;;;;;;3.42;2.63;;;18.00;79.00;;;;;;10542228;28;20063;-60
2022/06/05 01:00:18;;;;;;;3.95;3.20;;;18.00;79.00;;;;;;10542162;28;20082;-60
2022/06/05 01:05:21;;;;;;;5.38;3.28;;;17.90;79.00;;;;;;10542101;28;20036;-59
2022/06/05 01:10:26;;;;;;;4.03;3.17;;;17.90;79.00;;;;;;10541631;28;20056;-60
2022/06/05 01:15:38;;;;;;;4.53;3.03;;;17.90;79.10;;;;;;10542340;28;20021;-60
2022/06/05 01:20:56;;;;;;;4.25;3.17;;;17.90;79.10;;;;;;10541238;28;20029;-60
2022/06/05 01:26:09;;;;;;;4.85;3.17;;;17.80;79.10;;;;;;10541556;28;20117;-60
2022/06/05 01:31:27;;;;;;;4.15;3.33;;;17.80;79.20;;;;;;10540856;28;20040;-60
2022/06/05 01:36:37;;;;;;;5.95;3.13;;;17.80;79.20;;;;;;10540808;28;20078;-61
2022/06/05 01:41:44;;;;;;;4.80;3.05;;;17.70;79.20;;;;;;10540946;28;20047;-60
2022/06/05 01:46:45;;;;;;;5.35;3.03;;;17.70;79.20;;;;;;10540248;28;20043;-60
2022/06/05 01:52:07;;;;;;;6.05;3.17;;;17.70;79.80;;;;;;10539996;28;20488;-60
2022/06/05 01:57:11;;;;;;;5.18;3.20;;;17.60;79.30;;;;;;10540136;28;20043;-61
2022/06/05 02:02:17;;;;;;;3.50;2.92;;;17.60;79.30;;;;;;10539659;28;20024;-60
2022/06/05 02:07:43;;;;;;;4.30;3.13;;;17.60;79.30;;;;;;10539514;28;20030;-60
2022/06/05 02:12:44;;;;;;;6.20;3.05;;;17.60;79.40;;;;;;10538845;28;20511;-60
2022/06/05 02:17:45;;;;;;;5.43;3.10;;;17.50;79.40;;;;;;10539188;28;20091;-60
2022/06/05 02:22:48;;;;;;;4.32;3.20;;;17.50;79.40;;;;;;10538925;28;20028;-61
2022/06/05 02:27:49;;;;;;;4.05;2.67;;;17.40;79.40;;;;;;10538549;28;20090;-60
2022/06/05 02:33:12;;;;;;;4.53;3.17;;;17.40;79.50;;;;;;10537491;28;20473;-60
2022/06/05 02:38:12;;;;;;;5.25;2.95;;;17.40;79.50;;;;;;10538484;28;20074;-60
2022/06/05 02:43:35;;;;;;;5.78;3.33;;;17.40;79.50;;;;;;10538509;28;20063;-61
2022/06/05 02:49:10;;;;;;;6.05;3.13;;;17.40;79.70;;;;;;10537832;28;20036;-60
2022/06/05 02:54:21;;;;;;;3.67;3.17;;;17.40;79.70;;;;;;10537529;28;20032;-60
2022/06/05 02:59:24;;;;;;;5.20;3.70;;;17.30;79.70;;;;;;10537712;28;20043;-60
2022/06/05 03:04:24;;;;;;;5.43;3.80;;;17.30;79.60;;;;;;10537236;28;20024;-60
2022/06/05 03:09:26;;;;;;;3.85;3.08;;;17.30;79.70;;;;;;10537001;28;20066;-60
2022/06/05 03:14:26;;;;;;;4.35;3.10;;;17.30;79.70;;;;;;10536450;28;20115;-60
2022/06/05 03:19:27;;;;;;;5.43;3.30;;;17.20;79.70;;;;;;10536967;28;20210;-60
2022/06/05 03:24:28;;;;;;;3.85;2.92;;;17.30;79.80;;;;;;10536443;28;20451;-61
2022/06/05 03:29:28;;;;;;;5.88;3.40;;;17.20;79.80;;;;;;10536330;28;20183;-60
2022/06/05 03:34:29;;;;;;;4.82;3.08;;;17.20;79.80;;;;;;10536409;28;20107;-60
2022/06/05 03:39:31;;;;;;;5.00;3.40;;;17.20;79.80;;;;;;10536321;28;20036;-60
2022/06/05 03:44:39;;;;;;;5.40;3.53;;;17.20;79.90;;;;;;10533603;28;20044;-60
2022/06/05 03:49:40;;;;;;;4.80;3.42;;;17.10;79.90;;;;;;10536050;28;20084;-61
2022/06/05 03:54:41;;;;;;;4.97;3.28;;;17.10;79.90;;;;;;10536031;28;20067;-61
2022/06/05 03:59:42;;;;;;;5.10;3.30;;;17.10;79.90;;;;;;10535483;28;20086;-60
2022/06/05 04:04:42;;;;;;;4.05;3.38;;;17.10;79.90;;;;;;10535765;28;20036;-61
2022/06/05 04:09:43;;;;;;;5.78;3.47;;;17.10;79.90;;;;;;10535541;28;20507;-60
2022/06/05 04:14:43;;;;;;;5.13;3.22;;;17.10;79.90;;;;;;10535413;28;20131;-60
2022/06/05 04:19:44;;;;;;;6.28;3.58;;;17.10;80.00;;;;;;10535287;28;20085;-60
2022/06/05 04:24:45;;;;;;;5.47;3.88;;;17.10;79.90;;;;;;10535221;28;20508;-61
2022/06/05 04:29:45;;;;;;;5.55;3.63;;;17.10;79.90;;;;;;10543294;28;20044;-60
2022/06/05 04:34:49;;;;;;;4.47;3.30;;;16.90;79.80;;;;;;10543505;28;20036;-60
2022/06/05 04:39:50;;;;;;;6.50;3.53;;;17.10;79.90;;;;;;10543294;28;20120;-60
2022/06/05 04:44:50;;;;;;;4.90;3.10;;;17.10;79.90;;;;;;10542666;28;20075;-60
2022/06/05 04:49:51;;;;;;;5.30;3.20;;;17.10;79.90;;;;;;10542666;28;20172;-60
2022/06/05 04:54:52;;;;;;;7.00;3.42;;;17.10;79.90;;;;;;10542716;28;20054;-60
2022/06/05 04:59:54;;;;;;;6.63;3.30;;;17.10;80.00;;;;;;10542192;28;20036;-60
2022/06/05 05:04:56;;;;;;;5.97;3.38;;;17.10;80.00;;;;;;10542303;28;20580;-60
2022/06/05 05:09:57;;;;;;;6.13;3.58;;;17.10;80.00;;;;;;10541814;28;20047;-60
2022/06/05 05:14:58;;;;;;;5.78;3.70;;;17.00;79.90;;;;;;10541731;28;20032;-60
2022/06/05 05:19:59;;;;;;;4.18;3.30;;;17.00;79.90;;;;;;10541400;28;20040;-60
2022/06/05 05:24:59;;;;;;;4.47;3.33;;;17.10;80.00;;;;;;10541409;28;20036;-60
2022/06/05 05:30:00;;;;;;;6.10;3.38;;;17.00;79.90;;;;;;10541204;28;20040;-60
2022/06/05 05:35:01;;;;;;;5.15;3.25;;;17.10;80.00;;;;;;10540833;28;20126;-62
2022/06/05 05:45:23;;;;;;;5.88;3.53;;;17.00;79.90;;;;;;10508433;28;20052;-59
2022/06/05 05:50:24;;;;;;;5.80;3.42;;;17.00;79.90;;;;;;10540377;28;20123;-59
2022/06/05 05:55:24;;;;;;;5.38;3.28;;;17.10;79.90;;;;;;10539953;28;20115;-61
2022/06/05 06:00:26;;;;;;;5.32;3.17;;;17.10;79.90;;;;;;10540126;28;20040;-60
2022/06/05 06:05:27;;;;;;;4.82;3.25;;;17.10;79.90;;;;;;10540019;28;20027;-60
2022/06/05 06:10:27;;;;;;;4.35;3.28;;;17.10;79.80;;;;;;10539474;28;20040;-59
2022/06/05 06:15:28;;;;;;;5.03;3.20;;;17.10;79.70;;;;;;10539446;28;20043;-59
2022/06/05 06:20:29;;;;;;;4.65;3.05;;;17.20;79.70;;;;;;10538977;28;20040;-60
2022/06/05 06:25:30;;;;;;;4.95;3.40;;;17.20;79.70;;;;;;10539127;28;20530;-58
2022/06/05 06:30:32;;;;;;;4.32;3.08;;;17.20;79.70;;;;;;10538653;28;20047;-59
2022/06/05 06:35:37;;;;;;;4.15;3.38;;;17.20;79.60;;;;;;10538262;28;20456;-60
2022/06/05 06:40:37;;;;;;;5.80;3.75;;;17.20;79.70;;;;;;10537974;28;20097;-59
2022/06/05 06:45:38;;;;;;;4.47;3.17;;;17.20;79.60;;;;;;10537870;28;20090;-61
2022/06/05 06:50:39;;;;;;;5.32;3.67;;;17.30;79.60;;;;;;10537290;28;20039;-59
2022/06/05 06:55:39;;;;;;;4.57;3.03;;;17.30;79.60;;;;;;10537460;28;20119;-59
2022/06/05 07:00:40;;;;;;;3.63;2.88;;;17.30;79.60;;;;;;10537543;28;20043;-59
2022/06/05 07:05:41;;;;;;;4.60;3.33;;;17.30;79.60;;;;;;10537203;28;20092;-60
2022/06/05 07:10:43;;;;;;;4.57;3.38;;;17.40;79.60;;;;;;10536869;28;20148;-60
2022/06/05 07:15:44;;;;;;;5.05;3.40;;;17.30;79.60;;;;;;10537188;28;20044;-60
2022/06/05 07:20:46;;;;;;;6.90;3.50;;;17.30;79.60;;;;;;10536750;28;20051;-60
2022/06/05 07:25:51;;;;;;;4.90;2.97;;;17.30;79.70;;;;;;10536861;28;20115;-60
2022/06/05 07:30:52;;;;;;;5.28;3.80;;;17.30;79.80;;;;;;10518363;28;20095;-60
2022/06/05 07:36:03;;;;;;;4.90;3.38;;;17.30;79.70;;;;;;10536349;28;20036;-60
2022/06/05 07:41:06;;;;;;;6.97;3.67;;;17.40;79.80;;;;;;10536233;28;20149;-61
2022/06/05 07:46:07;;;;;;;4.85;3.60;;;17.40;79.80;;;;;;10535832;28;20151;-58
2022/06/05 07:56:33;;;;;;;10.20;6.13;;;17.50;79.80;;;;;;10535709;28;20122;-67
2022/06/05 08:01:35;;;;;;;15.93;7.50;;;17.60;81.00;;;;;;10535612;28;20377;-60
2022/06/05 08:06:35;;;;;;;11.70;7.28;;;17.60;82.10;;;;;;10535990;28;20388;-60
2022/06/05 08:11:36;;;;;;;11.27;7.38;;;17.60;82.80;;;;;;10535427;28;20162;-60
2022/06/05 08:16:39;;;;;;;14.43;7.35;;;17.60;83.50;;;;;;10533981;28;20040;-63
2022/06/05 08:21:41;;;;;;;11.27;7.43;;;17.70;84.10;;;;;;10535488;28;20097;-66
2022/06/05 08:26:41;;;;;;;10.55;6.95;;;17.80;84.30;;;;;;10535197;28;20062;-64
2022/06/05 08:31:43;;;;;;;12.02;7.53;;;17.90;84.60;;;;;;10535018;28;20082;-65
2022/06/05 08:36:44;;;;;;;13.85;7.55;;;18.10;84.70;;;;;;10535090;28;20101;-63
2022/06/05 08:42:02;;;;;;;11.93;7.55;;;18.30;84.80;;;;;;10533505;28;20028;-63
2022/06/05 08:47:03;;;;;;;;;;;18.40;84.70;;;;;;10535569;28;20043;-65
2022/06/05 08:52:27;;;;;;;10.50;6.45;;;18.60;86.10;;;;;;10535007;28;19912;-62
2022/06/05 08:57:50;;;;;;;11.90;7.45;;;18.80;85.20;;;;;;10534762;28;20098;-66
2022/06/05 09:03:06;;;;;;;12.77;6.97;;;19.00;85.30;;;;;;10534412;28;20036;-71
2022/06/05 09:08:18;;;;;;;10.20;7.10;;;19.20;84.20;;;;;;10534317;28;20477;-69
2022/06/05 09:13:28;;;;;;;10.50;7.05;;;19.40;84.00;;;;;;10538005;28;20036;-60
2022/06/05 09:18:35;;;;;;;11.55;6.88;;;19.50;83.80;;;;;;10541983;28;20040;-61
2022/06/05 09:23:41;;;;;;;11.50;7.30;;;19.70;83.70;;;;;;10541400;28;20044;-66
2022/06/05 09:29:20;;;;;;;10.55;7.40;;;19.80;83.70;;;;;;10541345;28;20076;-66
2022/06/05 09:34:31;;;;;;;10.18;6.60;;;19.90;83.20;;;;;;10540830;28;20089;-61
2022/06/05 09:39:45;;;;;;;9.80;7.15;;;20.10;83.00;;;;;;10540845;28;20034;-64
2022/06/05 09:44:59;;;;;;;8.48;6.20;;;20.10;82.70;;;;;;10540379;28;20139;-63
2022/06/05 09:50:04;;;;;;;11.80;6.82;;;20.30;82.70;;;;;;10540328;28;20044;-64
2022/06/05 09:55:21;;;;;;;13.02;7.47;;;20.40;82.60;;;;;;10539979;28;20089;-64
2022/06/05 10:00:30;;;;;;;10.60;7.80;;;20.50;82.20;;;;;;10540048;28;20024;-71
2022/06/05 10:05:36;;;;;;;9.43;6.97;;;20.50;82.10;;;;;;10539667;28;20040;-63
2022/06/05 10:10:40;;;;;;;9.35;7.15;;;20.60;82.20;;;;;;10539837;28;20040;-69
2022/06/05 10:16:04;;;;;;;11.55;7.60;;;20.80;82.20;;;;;;10539270;28;20020;-65
2022/06/05 10:21:07;;;;;;;10.45;7.68;;;20.80;82.00;;;;;;10539482;28;20052;-64
2022/06/05 10:26:34;;;;;;;10.07;7.82;;;21.00;81.50;;;;;;10538282;28;20028;-62
2022/06/05 10:31:37;;;;;;;11.88;7.78;;;21.00;81.10;;;;;;10539062;28;20066;-59
2022/06/05 10:36:56;;;;;;;11.30;7.32;;;21.00;81.40;;;;;;10538590;28;20028;-59
2022/06/05 10:41:57;;;;;;;11.52;8.20;;;21.10;81.80;;;;;;10538131;28;20078;-61
2022/06/05 10:47:32;;;;;;;14.23;7.80;;;21.10;81.70;;;;;;10537923;28;20097;-59
2022/06/05 10:52:51;;;;;;;10.02;7.63;;;21.10;82.00;;;;;;10533863;28;20082;-59
2022/06/05 10:58:12;;;;;;;10.43;7.60;;;21.10;81.80;;;;;;10537869;28;20058;-61
2022/06/05 11:03:19;;;;;;;9.90;7.60;;;21.10;82.10;;;;;;10537946;28;20461;-59
2022/06/05 11:08:29;;;;;;;10.32;8.13;;;21.20;82.50;;;;;;10537613;28;20400;-60
2022/06/05 11:13:42;;;;;;;8.30;7.30;;;21.10;82.30;;;;;;10537222;28;20028;-59
2022/06/05 11:19:15;;;;;;;11.05;7.88;;;21.10;82.50;;;;;;10537079;28;20121;-59
2022/06/05 11:24:39;;;;;;;9.55;7.13;;;21.10;82.20;;;;;;10537018;28;20480;-60
2022/06/05 11:29:53;;;;;;;10.15;7.75;;;21.10;82.40;;;;;;10536703;28;20496;-61
2022/06/05 11:35:08;;;;;;;10.15;7.43;;;21.10;82.20;;;;;;10536329;28;20063;-61
2022/06/05 11:40:33;;;;;;;11.77;8.30;;;21.20;82.10;;;;;;10536429;28;20033;-61
2022/06/05 11:46:03;;;;;;;12.10;8.93;;;21.20;82.10;;;;;;10536178;28;20048;-67
2022/06/05 11:51:19;;;;;;;9.82;8.05;;;21.30;82.00;;;;;;10518126;28;20051;-61
2022/06/05 11:56:34;;;;;;;12.30;7.97;;;21.30;81.90;;;;;;10536059;28;20042;-69
2022/06/05 12:01:43;;;;;;;10.82;8.20;;;21.30;82.20;;;;;;10536081;28;20063;-64
2022/06/05 12:06:51;;;;;;;10.65;8.32;;;21.30;82.20;;;;;;10535908;28;20123;-62
2022/06/05 12:11:57;;;;;;;;;;;21.30;82.00;;;;;;10536154;28;20040;-61
2022/06/05 12:17:07;;;;;;;10.75;7.63;;;21.30;82.70;;;;;;10535480;28;19994;-63
2022/06/05 12:22:29;;;;;;;13.23;8.32;;;21.30;82.50;;;;;;10535522;28;20039;-67
2022/06/05 12:27:57;;;;;;;8.90;7.85;;;21.40;82.80;;;;;;10535322;28;20514;-63
2022/06/05 12:33:24;;;;;;;12.20;8.38;;;21.40;82.70;;;;;;10535366;28;20044;-63
2022/06/05 12:38:36;;;;;;;10.20;7.80;;;21.40;82.10;;;;;;10535258;28;20036;-65
2022/06/05 12:44:14;;;;;;;10.07;8.05;;;21.50;82.10;;;;;;10532639;28;20529;-64
2022/06/05 12:49:39;;;;;;;11.95;8.43;;;21.50;82.20;;;;;;10540424;28;20044;-64
2022/06/05 12:54:55;;;;;;;9.10;8.20;;;21.60;82.40;;;;;;10542895;28;20034;-64
2022/06/05 13:00:22;;;;;;;10.38;7.55;;;21.70;82.20;;;;;;10542573;28;20078;-66
2022/06/05 13:05:32;;;;;;;8.48;7.57;;;21.80;82.10;;;;;;10542323;28;20512;-63
2022/06/05 13:10:51;;;;;;;13.20;8.57;;;21.80;81.80;;;;;;10542295;28;20119;-64
2022/06/05 13:15:55;;;;;;;11.20;8.20;;;21.90;81.10;;;;;;10542016;28;20024;-65
2022/06/05 13:21:17;;;;;;;9.60;7.53;;;21.90;81.10;;;;;;10541636;28;20031;-60
2022/06/05 13:26:53;;;;;;;8.20;7.35;;;22.00;81.00;;;;;;10541803;28;20033;-60
2022/06/05 13:32:05;;;;;;;9.60;7.65;;;22.10;81.40;;;;;;10541315;28;20065;-60
2022/06/05 13:37:18;;;;;;;8.57;7.35;;;22.20;80.80;;;;;;10541009;28;20369;-65
2022/06/05 13:42:22;;;;;;;9.52;8.15;;;22.30;80.90;;;;;;10540731;28;20447;-66
2022/06/05 13:47:46;;;;;;;9.57;7.75;;;22.30;81.20;;;;;;10540409;28;20092;-66
2022/06/05 13:52:51;;;;;;;8.95;7.45;;;22.20;81.30;;;;;;10540532;28;20071;-59
2022/06/05 13:58:16;;;;;;;8.95;7.57;;;22.10;81.40;;;;;;10539988;28;20101;-61
2022/06/05 14:03:35;;;;;;;8.98;7.88;;;22.10;81.40;;;;;;10540008;28;20036;-60
2022/06/05 14:08:56;;;;;;;9.75;7.13;;;22.00;81.10;;;;;;10539822;28;20400;-64
2022/06/05 14:13:58;;;;;;;10.68;7.43;;;21.90;81.50;;;;;;10539560;28;20036;-64
2022/06/05 14:19:03;;;;;;;8.45;7.30;;;21.90;81.80;;;;;;10539230;28;20028;-61
2022/06/05 14:24:07;;;;;;;8.77;7.90;;;21.90;82.00;;;;;;10539170;28;20040;-64
2022/06/05 14:29:15;;;;;;;8.43;7.50;;;21.90;82.10;;;;;;10539248;28;20151;-61
2022/06/05 14:34:20;;;;;;;7.97;7.13;;;22.00;82.10;;;;;;10538833;28;20032;-61
2022/06/05 14:39:30;;;;;;;8.88;7.45;;;21.90;82.10;;;;;;10538787;28;20046;-61
2022/06/05 14:44:45;;;;;;;9.40;7.57;;;21.90;82.30;;;;;;10538196;28;20093;-62
2022/06/05 14:49:49;;;;;;;8.55;7.47;;;21.80;82.80;;;;;;10538169;28;20052;-62
2022/06/05 15:00:54;;;;;;;7.05;6.45;;;21.70;83.10;;;;;;10537840;28;20036;-65
2022/06/05 15:06:00;;;;;;;7.60;6.20;;;21.60;83.40;;;;;;10537557;28;20119;-64
2022/06/05 15:11:03;;;;;;;7.75;6.40;;;21.50;83.70;;;;;;10536951;28;20031;-64
2022/06/05 15:16:17;;;;;;;6.80;6.18;;;21.50;83.70;;;;;;10537237;28;20469;-63
2022/06/05 15:21:24;;;;;;;8.13;6.93;;;21.60;84.40;;;;;;10536845;28;20042;-65
2022/06/05 15:26:33;;;;;;;9.38;7.03;;;21.60;84.20;;;;;;10536950;28;20040;-60
2022/06/05 15:31:47;;;;;;;11.27;7.55;;;21.50;85.60;;;;;;10536621;28;20044;-63
2022/06/05 15:37:16;;;;;;;8.38;6.90;;;21.30;86.50;;;;;;10536425;28;20052;-60
2022/06/05 15:42:43;;;;;;;13.77;7.55;;;21.20;87.10;;;;;;10536360;28;20046;-61
2022/06/05 15:48:06;;;;;;;8.27;7.22;;;21.10;87.70;;;;;;10535752;28;20152;-67
2022/06/05 15:53:28;;;;;;;9.60;7.85;;;21.10;87.90;;;;;;10535977;28;20497;-60
2022/06/05 15:59:13;;;;;;;8.35;7.28;;;21.00;88.40;;;;;;10535809;28;20036;-62
2022/06/05 16:04:21;;;;;;;11.00;7.28;;;20.90;88.60;;;;;;10523441;28;20058;-61
2022/06/05 16:09:35;;;;;;;16.33;7.65;;;20.90;88.80;;;;;;10535221;28;20506;-62
2022/06/05 16:15:05;;;;;;;8.20;7.13;;;20.80;89.60;;;;;;10535433;28;20103;-62
2022/06/05 16:20:25;;;;;;;6.43;5.60;;;20.70;90.10;;;;;;10533702;28;20040;-60
2022/06/05 16:26:03;;;;;;;7.18;5.78;;;20.50;90.60;;;;;;10544040;28;20077;-61
2022/06/05 16:31:16;;;;;;;7.88;5.00;;;20.50;90.90;;;;;;10543534;28;20067;-61
2022/06/05 16:41:44;;;;;;;5.90;4.35;;;20.30;91.10;;;;;;10542811;28;20509;-61
2022/06/05 16:46:45;;;;;;;5.43;4.40;;;20.30;91.30;;;;;;10542706;28;20134;-61
2022/06/05 16:51:47;;;;;;;4.70;4.05;;;20.20;91.40;;;;;;10542752;28;20047;-62
2022/06/05 16:57:00;;;;;;;4.80;4.00;;;20.10;91.50;;;;;;10542572;28;20401;-63
2022/06/05 17:02:18;;;;;;;5.22;3.55;;;20.10;91.80;;;;;;10542316;28;20032;-62
2022/06/05 17:07:22;;;;;;;3.58;3.22;;;20.00;92.10;;;;;;10542972;28;20499;-61
2022/06/05 17:12:44;;;;;;;3.40;3.08;;;20.00;92.00;;;;;;10542228;28;20044;-60
2022/06/05 17:17:45;;;;;;;3.30;2.95;;;19.90;92.20;;;;;;10523851;28;20077;-62
2022/06/05 17:22:59;;;;;;;3.25;2.95;;;19.90;92.20;;;;;;10541357;28;20040;-61
2022/06/05 17:28:19;;;;;;;4.13;2.78;;;19.80;92.50;;;;;;10540972;28;20032;-62
2022/06/05 17:33:21;;;;;;;6.03;3.10;;;19.80;92.70;;;;;;10540449;28;20111;-63
2022/06/05 17:39:05;;;;;;;3.47;3.10;;;19.70;92.60;;;;;;10540948;28;20027;-60
2022/06/05 17:44:12;;;;;;;6.55;3.75;;;19.70;93.00;;;;;;10540583;28;20102;-63
2022/06/05 17:49:21;;;;;;;3.88;3.30;;;19.70;92.80;;;;;;10540615;28;20044;-64
2022/06/05 17:54:27;;;;;;;6.50;3.60;;;19.60;92.80;;;;;;10540236;28;20469;-60
2022/06/05 17:59:37;;;;;;;4.95;3.25;;;19.60;92.90;;;;;;10540277;28;20112;-59
2022/06/05 18:04:38;;;;;;;4.65;3.50;;;19.60;93.10;;;;;;10540018;28;20044;-61
2022/06/05 18:09:54;;;;;;;5.32;3.20;;;19.50;93.00;;;;;;10540004;28;20044;-63
2022/06/05 18:14:57;;;;;;;4.03;2.95;;;19.50;93.20;;;;;;10521543;28;20028;-62
2022/06/05 18:20:01;;;;;;;4.07;3.25;;;19.50;93.20;;;;;;10539455;28;20070;-63
2022/06/05 18:25:36;;;;;;;4.18;3.65;;;19.50;93.30;;;;;;10539285;28;20047;-62
2022/06/05 18:31:06;;;;;;;4.30;3.50;;;19.40;93.70;;;;;;10538998;28;20044;-60
2022/06/05 18:41:44;;;;;;;4.38;3.90;;;19.40;93.70;;;;;;10538534;28;20035;-61
2022/06/05 18:46:46;;;;;;;6.50;4.40;;;19.30;93.60;;;;;;10537238;28;20186;-59
2022/06/05 18:51:50;;;;;;;4.45;3.83;;;19.30;93.70;;;;;;10538130;28;20071;-59
2022/06/05 18:57:28;;;;;;;5.32;3.90;;;19.30;93.60;;;;;;10537236;28;20028;-60
2022/06/05 19:02:29;;;;;;;4.78;4.00;;;19.40;93.70;;;;;;10530752;28;20036;-58
2022/06/05 19:07:43;;;;;;;4.20;3.80;;;19.40;93.50;;;;;;10523384;27;1383919;-57
2022/06/05 19:12:54;;;;;;;4.45;4.05;;;19.30;93.40;;;;;;10541705;27;20055;-61
2022/06/05 19:18:01;;;;;;;4.88;4.10;;;19.40;93.40;;;;;;10535929;28;20477;-59
2022/06/05 19:23:18;;;;;;;4.95;3.88;;;19.30;93.20;;;;;;10537126;28;20032;-58
2022/06/05 19:28:44;;;;;;;5.05;4.13;;;19.30;93.20;;;;;;10536957;28;20115;-61
2022/06/05 19:33:45;;;;;;;4.82;4.10;;;19.30;93.20;;;;;;10541384;28;20039;-59
2022/06/05 19:39:03;;;;;;;7.35;4.25;;;19.30;93.10;;;;;;10537797;28;20031;-61
2022/06/05 19:44:18;;;;;;;;;;;19.30;93.20;;;;;;10546095;28;20032;-60
2022/06/05 19:49:24;;;;;;;5.28;4.50;;;19.30;93.20;;;;;;10532673;28;19908;-58
2022/06/05 19:54:34;;;;;;;5.53;4.22;;;19.20;93.00;;;;;;10538066;28;20021;-61
2022/06/05 19:59:35;;;;;;;4.75;4.18;;;19.20;93.00;;;;;;10540482;28;20052;-61
2022/06/05 20:04:45;;;;;;;6.97;4.60;;;19.20;93.30;;;;;;10548908;28;20498;-58
2022/06/05 20:09:53;;;;;;;5.72;4.88;;;19.20;93.10;;;;;;10537693;28;20015;-61
2022/06/05 20:15:16;;;;;;;6.57;5.30;;;19.20;93.10;;;;;;10535766;28;20059;-59
2022/06/05 20:20:23;;;;;;;6.63;4.70;;;19.10;93.10;;;;;;10516066;28;20024;-62
2022/06/05 20:25:46;;;;;;;5.25;4.72;;;19.10;93.30;;;;;;10515834;28;20031;-58
2022/06/05 20:31:10;;;;;;;5.45;4.88;;;19.10;93.10;;;;;;10512941;28;20024;-60
2022/06/05 20:36:17;;;;;;;5.63;4.80;;;19.10;93.10;;;;;;10508312;28;20016;-58
2022/06/05 20:41:32;;;;;;;6.35;5.10;;;19.10;93.10;;;;;;10510555;28;20076;-61
2022/06/05 20:46:39;;;;;;;5.85;5.00;;;19.10;93.10;;;;;;10511356;28;20730;-62
2022/06/05 20:51:40;;;;;;;5.95;5.15;;;19.10;93.10;;;;;;10507542;28;20025;-60
2022/06/05 20:56:48;;;;;;;6.72;5.22;;;19.00;93.10;;;;;;10508691;28;20520;-59
2022/06/05 21:02:03;;;;;;;5.80;5.15;;;19.00;93.10;;;;;;10519670;28;20078;-62
2022/06/05 21:07:11;;;;;;;6.22;5.00;;;19.00;93.40;;;;;;10504068;28;20404;-58
2022/06/05 21:17:36;;;;;;;5.60;4.90;;;19.00;93.20;;;;;;10504915;28;20028;-67
2022/06/05 21:22:40;;;;;;;6.28;5.30;;;19.00;93.20;;;;;;10501550;28;20115;-58
2022/06/05 21:27:50;;;;;;;6.05;4.85;;;18.90;93.20;;;;;;10499816;28;20033;-58
2022/06/05 21:32:54;;;;;;;6.50;4.55;;;18.90;93.20;;;;;;10505554;28;20033;-58
2022/06/05 21:38:30;;;;;;;5.20;4.70;;;18.90;93.20;;;;;;10491140;28;20039;-59
2022/06/05 21:43:37;;;;;;;5.75;4.93;;;18.90;93.30;;;;;;10483025;28;20059;-58
2022/06/05 21:48:42;;;;;;;5.30;4.70;;;18.90;93.20;;;;;;10502515;28;20036;-58
2022/06/05 21:53:48;;;;;;;6.65;5.25;;;18.80;93.20;;;;;;10510594;28;20035;-59
2022/06/05 21:58:51;;;;;;;5.90;5.03;;;18.90;93.30;;;;;;10505400;28;20028;-58
2022/06/05 22:03:53;;;;;;;7.90;5.15;;;18.80;93.20;;;;;;10501551;28;20055;-58
2022/06/05 22:08:54;;;;;;;5.97;4.93;;;18.80;93.30;;;;;;10505959;28;20577;-61
2022/06/05 22:13:55;;;;;;;6.07;4.45;;;18.80;93.30;;;;;;10507031;28;20055;-57
2022/06/05 22:18:56;;;;;;;7.85;4.72;;;18.80;93.30;;;;;;10505404;28;20123;-58
2022/06/05 22:23:59;;;;;;;5.55;4.93;;;18.80;93.30;;;;;;10506570;28;20036;-58
2022/06/05 22:29:00;;;;;;;6.50;4.80;;;18.70;93.50;;;;;;10506920;28;20083;-60
2022/06/05 22:34:01;;;;;;;5.60;4.70;;;18.80;93.40;;;;;;10504149;28;20028;-58
2022/06/05 22:39:03;;;;;;;6.63;5.05;;;18.70;93.40;;;;;;10502280;28;20047;-58
2022/06/05 22:44:05;;;;;;;5.55;4.85;;;18.70;93.40;;;;;;10509621;28;20464;-62
2022/06/05 22:49:06;;;;;;;6.50;5.00;;;18.70;93.40;;;;;;10505931;28;20024;-59
2022/06/05 22:54:08;;;;;;;6.32;4.80;;;18.70;93.50;;;;;;10507633;28;20120;-58
2022/06/05 22:59:09;;;;;;;5.75;4.70;;;18.70;93.50;;;;;;10505591;28;20449;-60
2022/06/05 23:04:11;;;;;;;5.32;4.65;;;18.70;93.50;;;;;;10501958;28;20052;-61
2022/06/05 23:09:12;;;;;;;6.30;4.70;;;18.60;93.50;;;;;;10503290;28;20024;-58
2022/06/05 23:14:13;;;;;;;5.65;4.47;;;18.60;93.50;;;;;;10496965;28;20112;-61
2022/06/05 23:24:34;;;;;;;5.22;4.18;;;18.60;93.60;;;;;;10508231;28;20040;-58
2022/06/05 23:29:35;;;;;;;6.45;4.20;;;18.60;93.60;;;;;;10507666;28;20021;-58
2022/06/05 23:34:41;;;;;;;4.68;4.13;;;18.60;93.60;;;;;;10509328;28;20117;-58
2022/06/05 23:39:41;;;;;;;5.65;3.95;;;18.60;93.70;;;;;;10499046;28;20021;-60
2022/06/05 23:44:42;;;;;;;6.15;3.90;;;18.60;93.70;;;;;;10500905;28;20036;-58
2022/06/05 23:49:43;;;;;;;5.00;3.75;;;18.50;93.70;;;;;;10503358;28;20051;-59
2022/06/05 23:54:43;;;;;;;4.68;3.60;;;18.50;93.70;;;;;;10504046;28;20431;-59
2022/06/05 23:59:44;;;;;;;4.35;3.58;;;18.50;94.00;;;;;;10507927;28;20031;-58
